sensor_id;sensor_type;location;lat;lon;timestamp;temperature;humidity
42037;DHT22;75222;52.004;5.908;2024-01-16T00:01:20;2.50;94.90
42037;DHT22;75222;52.004;5.908;2024-01-16T00:03:46;2.50;94.90
42037;DHT22;75222;52.004;5.908;2024-01-16T00:06:11;2.50;94.90
42037;DHT22;75222;52.004;5.908;2024-01-16T00:08:37;2.50;94.90
42037;DHT22;75222;52.004;5.908;2024-01-16T00:11:03;2.50;94.90
42037;DHT22;75222;52.004;5.908;2024-01-16T00:13:29;2.40;94.90
42037;DHT22;75222;52.004;5.908;2024-01-16T00:15:54;2.40;94.90
42037;DHT22;75222;52.004;5.908;2024-01-16T00:18:22;2.40;95.00
42037;DHT22;75222;52.004;5.908;2024-01-16T00:20:48;2.40;95.00
42037;DHT22;75222;52.004;5.908;2024-01-16T00:23:13;2.40;95.00
42037;DHT22;75222;52.004;5.908;2024-01-16T00:25:39;2.40;95.00
42037;DHT22;75222;52.004;5.908;2024-01-16T00:28:05;2.40;95.00
42037;DHT22;75222;52.004;5.908;2024-01-16T00:30:30;2.40;94.90
42037;DHT22;75222;52.004;5.908;2024-01-16T00:32:56;2.40;94.90
42037;DHT22;75222;52.004;5.908;2024-01-16T00:35:21;2.40;94.80
42037;DHT22;75222;52.004;5.908;2024-01-16T00:37:47;2.30;94.80
42037;DHT22;75222;52.004;5.908;2024-01-16T00:40:13;2.30;94.90
42037;DHT22;75222;52.004;5.908;2024-01-16T00:42:38;2.30;94.90
42037;DHT22;75222;52.004;5.908;2024-01-16T00:45:04;2.30;94.90
42037;DHT22;75222;52.004;5.908;2024-01-16T00:47:30;2.30;94.90
42037;DHT22;75222;52.004;5.908;2024-01-16T00:49:56;2.30;94.90
42037;DHT22;75222;52.004;5.908;2024-01-16T00:52:21;2.40;94.90
42037;DHT22;75222;52.004;5.908;2024-01-16T00:54:47;2.40;94.90
42037;DHT22;75222;52.004;5.908;2024-01-16T00:57:13;2.40;94.80
42037;DHT22;75222;52.004;5.908;2024-01-16T00:59:41;2.50;94.80
42037;DHT22;75222;52.004;5.908;2024-01-16T01:02:07;2.50;94.70
42037;DHT22;75222;52.004;5.908;2024-01-16T01:04:35;2.50;94.70
42037;DHT22;75222;52.004;5.908;2024-01-16T01:07:00;2.50;94.70
42037;DHT22;75222;52.004;5.908;2024-01-16T01:09:26;2.50;94.60
42037;DHT22;75222;52.004;5.908;2024-01-16T01:11:51;2.50;94.60
42037;DHT22;75222;52.004;5.908;2024-01-16T01:14:17;2.50;94.60
42037;DHT22;75222;52.004;5.908;2024-01-16T01:16:43;2.40;94.60
42037;DHT22;75222;52.004;5.908;2024-01-16T01:19:08;2.40;94.60
42037;DHT22;75222;52.004;5.908;2024-01-16T01:21:35;2.30;94.60
42037;DHT22;75222;52.004;5.908;2024-01-16T01:24:01;2.30;94.70
42037;DHT22;75222;52.004;5.908;2024-01-16T01:26:26;2.30;94.70
42037;DHT22;75222;52.004;5.908;2024-01-16T01:28:52;2.30;94.80
42037;DHT22;75222;52.004;5.908;2024-01-16T01:31:18;2.20;94.80
42037;DHT22;75222;52.004;5.908;2024-01-16T01:33:43;2.40;94.80
42037;DHT22;75222;52.004;5.908;2024-01-16T01:36:09;2.20;94.80
42037;DHT22;75222;52.004;5.908;2024-01-16T01:38:35;2.30;94.70
42037;DHT22;75222;52.004;5.908;2024-01-16T01:41:01;2.30;94.80
42037;DHT22;75222;52.004;5.908;2024-01-16T01:43:26;2.30;94.80
42037;DHT22;75222;52.004;5.908;2024-01-16T01:46:16;2.30;94.80
42037;DHT22;75222;52.004;5.908;2024-01-16T01:48:43;2.30;94.80
42037;DHT22;75222;52.004;5.908;2024-01-16T01:51:09;2.30;94.70
42037;DHT22;75222;52.004;5.908;2024-01-16T01:53:36;2.20;94.70
42037;DHT22;75222;52.004;5.908;2024-01-16T01:56:04;2.20;94.70
42037;DHT22;75222;52.004;5.908;2024-01-16T01:58:34;2.20;94.70
42037;DHT22;75222;52.004;5.908;2024-01-16T02:01:01;2.20;94.70
42037;DHT22;75222;52.004;5.908;2024-01-16T02:03:27;2.20;94.70
42037;DHT22;75222;52.004;5.908;2024-01-16T02:05:55;2.10;94.70
42037;DHT22;75222;52.004;5.908;2024-01-16T02:08:22;2.10;94.80
42037;DHT22;75222;52.004;5.908;2024-01-16T02:10:49;2.00;94.90
42037;DHT22;75222;52.004;5.908;2024-01-16T02:13:15;2.10;95.00
42037;DHT22;75222;52.004;5.908;2024-01-16T02:15:44;2.10;94.90
42037;DHT22;75222;52.004;5.908;2024-01-16T02:18:09;2.10;95.00
42037;DHT22;75222;52.004;5.908;2024-01-16T02:20:35;2.00;95.00
42037;DHT22;75222;52.004;5.908;2024-01-16T02:23:03;2.10;95.00
42037;DHT22;75222;52.004;5.908;2024-01-16T02:25:29;2.10;95.00
42037;DHT22;75222;52.004;5.908;2024-01-16T02:27:55;2.10;94.90
42037;DHT22;75222;52.004;5.908;2024-01-16T02:30:21;2.10;94.90
42037;DHT22;75222;52.004;5.908;2024-01-16T02:32:46;2.10;94.80
42037;DHT22;75222;52.004;5.908;2024-01-16T02:35:12;2.10;94.80
42037;DHT22;75222;52.004;5.908;2024-01-16T02:37:37;2.10;94.80
42037;DHT22;75222;52.004;5.908;2024-01-16T02:40:03;2.10;94.70
42037;DHT22;75222;52.004;5.908;2024-01-16T02:42:35;2.20;94.80
42037;DHT22;75222;52.004;5.908;2024-01-16T02:45:02;2.20;94.70
42037;DHT22;75222;52.004;5.908;2024-01-16T02:47:29;2.20;94.70
42037;DHT22;75222;52.004;5.908;2024-01-16T02:49:54;2.20;94.70
42037;DHT22;75222;52.004;5.908;2024-01-16T02:52:20;2.20;94.70
42037;DHT22;75222;52.004;5.908;2024-01-16T02:54:46;2.20;94.70
42037;DHT22;75222;52.004;5.908;2024-01-16T02:57:11;2.30;94.60
42037;DHT22;75222;52.004;5.908;2024-01-16T02:59:37;2.30;94.60
42037;DHT22;75222;52.004;5.908;2024-01-16T03:02:03;2.20;94.60
42037;DHT22;75222;52.004;5.908;2024-01-16T03:04:29;2.20;94.70
42037;DHT22;75222;52.004;5.908;2024-01-16T03:06:55;2.20;94.70
42037;DHT22;75222;52.004;5.908;2024-01-16T03:09:21;2.30;94.70
42037;DHT22;75222;52.004;5.908;2024-01-16T03:11:46;2.20;94.70
42037;DHT22;75222;52.004;5.908;2024-01-16T03:14:12;2.20;94.70
42037;DHT22;75222;52.004;5.908;2024-01-16T03:16:39;2.30;94.70
42037;DHT22;75222;52.004;5.908;2024-01-16T03:19:04;2.30;94.70
42037;DHT22;75222;52.004;5.908;2024-01-16T03:21:30;2.30;94.70
42037;DHT22;75222;52.004;5.908;2024-01-16T03:23:56;2.30;94.70
42037;DHT22;75222;52.004;5.908;2024-01-16T03:26:21;2.30;94.70
42037;DHT22;75222;52.004;5.908;2024-01-16T03:28:47;2.30;94.70
42037;DHT22;75222;52.004;5.908;2024-01-16T03:31:13;2.30;94.70
42037;DHT22;75222;52.004;5.908;2024-01-16T03:33:42;2.30;94.80
42037;DHT22;75222;52.004;5.908;2024-01-16T03:36:09;2.30;94.80
42037;DHT22;75222;52.004;5.908;2024-01-16T03:38:35;2.40;94.80
42037;DHT22;75222;52.004;5.908;2024-01-16T03:41:03;2.40;94.70
42037;DHT22;75222;52.004;5.908;2024-01-16T03:43:29;2.40;94.70
42037;DHT22;75222;52.004;5.908;2024-01-16T03:45:57;2.40;94.70
42037;DHT22;75222;52.004;5.908;2024-01-16T03:48:23;2.40;94.80
42037;DHT22;75222;52.004;5.908;2024-01-16T03:50:48;2.50;94.80
42037;DHT22;75222;52.004;5.908;2024-01-16T03:53:14;2.50;94.70
42037;DHT22;75222;52.004;5.908;2024-01-16T03:55:39;2.50;94.70
42037;DHT22;75222;52.004;5.908;2024-01-16T03:58:05;2.50;94.60
42037;DHT22;75222;52.004;5.908;2024-01-16T04:00:31;2.40;94.60
42037;DHT22;75222;52.004;5.908;2024-01-16T04:02:56;2.40;94.70
42037;DHT22;75222;52.004;5.908;2024-01-16T04:05:22;2.40;94.70
42037;DHT22;75222;52.004;5.908;2024-01-16T04:07:48;2.50;94.70
42037;DHT22;75222;52.004;5.908;2024-01-16T04:10:13;2.40;94.70
42037;DHT22;75222;52.004;5.908;2024-01-16T04:12:39;2.40;94.70
42037;DHT22;75222;52.004;5.908;2024-01-16T04:15:05;2.40;94.70
42037;DHT22;75222;52.004;5.908;2024-01-16T04:17:30;2.40;94.70
42037;DHT22;75222;52.004;5.908;2024-01-16T04:19:56;2.40;94.70
42037;DHT22;75222;52.004;5.908;2024-01-16T04:22:22;2.40;94.70
42037;DHT22;75222;52.004;5.908;2024-01-16T04:24:47;2.40;94.70
42037;DHT22;75222;52.004;5.908;2024-01-16T04:27:13;2.40;94.70
42037;DHT22;75222;52.004;5.908;2024-01-16T04:29:39;2.40;94.70
42037;DHT22;75222;52.004;5.908;2024-01-16T04:32:04;2.40;94.70
42037;DHT22;75222;52.004;5.908;2024-01-16T04:34:30;2.40;94.70
42037;DHT22;75222;52.004;5.908;2024-01-16T04:36:56;2.50;94.70
42037;DHT22;75222;52.004;5.908;2024-01-16T04:39:21;2.50;94.70
42037;DHT22;75222;52.004;5.908;2024-01-16T04:41:50;2.50;94.60
42037;DHT22;75222;52.004;5.908;2024-01-16T04:44:15;2.50;94.60
42037;DHT22;75222;52.004;5.908;2024-01-16T04:46:41;2.60;94.60
42037;DHT22;75222;52.004;5.908;2024-01-16T04:49:06;2.60;94.60
42037;DHT22;75222;52.004;5.908;2024-01-16T04:51:32;2.60;94.60
42037;DHT22;75222;52.004;5.908;2024-01-16T04:53:58;2.60;94.60
42037;DHT22;75222;52.004;5.908;2024-01-16T04:56:23;2.60;94.60
42037;DHT22;75222;52.004;5.908;2024-01-16T04:58:49;2.60;94.60
42037;DHT22;75222;52.004;5.908;2024-01-16T05:01:14;2.60;94.60
42037;DHT22;75222;52.004;5.908;2024-01-16T05:03:40;2.50;94.70
42037;DHT22;75222;52.004;5.908;2024-01-16T05:06:12;2.50;94.70
42037;DHT22;75222;52.004;5.908;2024-01-16T05:08:39;2.40;94.70
42037;DHT22;75222;52.004;5.908;2024-01-16T05:11:04;2.50;94.70
42037;DHT22;75222;52.004;5.908;2024-01-16T05:13:30;2.50;94.80
42037;DHT22;75222;52.004;5.908;2024-01-16T05:15:55;2.50;94.80
42037;DHT22;75222;52.004;5.908;2024-01-16T05:18:21;2.50;94.80
42037;DHT22;75222;52.004;5.908;2024-01-16T05:20:46;2.50;94.70
42037;DHT22;75222;52.004;5.908;2024-01-16T05:23:12;2.60;94.70
42037;DHT22;75222;52.004;5.908;2024-01-16T05:25:38;2.50;94.70
42037;DHT22;75222;52.004;5.908;2024-01-16T05:28:03;2.50;94.70
42037;DHT22;75222;52.004;5.908;2024-01-16T05:30:29;2.50;94.70
42037;DHT22;75222;52.004;5.908;2024-01-16T05:32:55;2.50;94.60
42037;DHT22;75222;52.004;5.908;2024-01-16T05:35:21;2.50;94.60
42037;DHT22;75222;52.004;5.908;2024-01-16T05:37:46;2.50;94.70
42037;DHT22;75222;52.004;5.908;2024-01-16T05:40:13;2.50;94.70
42037;DHT22;75222;52.004;5.908;2024-01-16T05:42:38;2.50;94.70
42037;DHT22;75222;52.004;5.908;2024-01-16T05:45:04;2.50;94.70
42037;DHT22;75222;52.004;5.908;2024-01-16T05:47:30;2.50;94.70
42037;DHT22;75222;52.004;5.908;2024-01-16T05:49:56;2.40;94.60
42037;DHT22;75222;52.004;5.908;2024-01-16T05:52:22;2.50;94.60
42037;DHT22;75222;52.004;5.908;2024-01-16T05:54:48;2.50;94.60
42037;DHT22;75222;52.004;5.908;2024-01-16T05:57:13;2.50;94.60
42037;DHT22;75222;52.004;5.908;2024-01-16T05:59:39;2.50;94.60
42037;DHT22;75222;52.004;5.908;2024-01-16T06:02:05;2.40;94.70
42037;DHT22;75222;52.004;5.908;2024-01-16T06:04:30;2.40;94.70
42037;DHT22;75222;52.004;5.908;2024-01-16T06:06:56;2.40;94.80
42037;DHT22;75222;52.004;5.908;2024-01-16T06:09:21;2.40;94.80
42037;DHT22;75222;52.004;5.908;2024-01-16T06:11:47;2.40;94.80
42037;DHT22;75222;52.004;5.908;2024-01-16T06:14:13;2.40;94.80
42037;DHT22;75222;52.004;5.908;2024-01-16T06:16:39;2.40;94.80
42037;DHT22;75222;52.004;5.908;2024-01-16T06:19:04;2.50;94.80
42037;DHT22;75222;52.004;5.908;2024-01-16T06:21:30;2.40;94.80
42037;DHT22;75222;52.004;5.908;2024-01-16T06:23:56;2.40;94.90
42037;DHT22;75222;52.004;5.908;2024-01-16T06:26:22;2.40;94.90
42037;DHT22;75222;52.004;5.908;2024-01-16T06:28:47;2.40;94.90
42037;DHT22;75222;52.004;5.908;2024-01-16T06:31:13;2.40;94.90
42037;DHT22;75222;52.004;5.908;2024-01-16T06:33:38;2.40;94.90
42037;DHT22;75222;52.004;5.908;2024-01-16T06:36:04;2.40;94.90
42037;DHT22;75222;52.004;5.908;2024-01-16T06:38:30;2.40;94.90
42037;DHT22;75222;52.004;5.908;2024-01-16T06:40:57;2.40;94.80
42037;DHT22;75222;52.004;5.908;2024-01-16T06:43:23;2.40;94.90
42037;DHT22;75222;52.004;5.908;2024-01-16T06:45:48;2.40;94.90
42037;DHT22;75222;52.004;5.908;2024-01-16T06:48:14;2.40;94.90
42037;DHT22;75222;52.004;5.908;2024-01-16T06:50:41;2.40;95.00
42037;DHT22;75222;52.004;5.908;2024-01-16T06:53:07;2.50;95.00
42037;DHT22;75222;52.004;5.908;2024-01-16T06:55:32;2.50;94.90
42037;DHT22;75222;52.004;5.908;2024-01-16T06:57:58;2.40;94.80
42037;DHT22;75222;52.004;5.908;2024-01-16T07:00:23;2.40;94.90
42037;DHT22;75222;52.004;5.908;2024-01-16T07:02:52;2.40;94.90
42037;DHT22;75222;52.004;5.908;2024-01-16T07:05:17;2.40;94.90
42037;DHT22;75222;52.004;5.908;2024-01-16T07:07:43;2.40;95.00
42037;DHT22;75222;52.004;5.908;2024-01-16T07:10:09;2.40;95.00
42037;DHT22;75222;52.004;5.908;2024-01-16T07:12:39;2.40;95.00
42037;DHT22;75222;52.004;5.908;2024-01-16T07:15:05;2.40;95.00
42037;DHT22;75222;52.004;5.908;2024-01-16T07:17:30;2.50;95.00
42037;DHT22;75222;52.004;5.908;2024-01-16T07:19:56;2.50;95.10
42037;DHT22;75222;52.004;5.908;2024-01-16T07:22:23;2.50;95.00
42037;DHT22;75222;52.004;5.908;2024-01-16T07:24:49;2.50;94.90
42037;DHT22;75222;52.004;5.908;2024-01-16T07:27:15;2.50;94.90
42037;DHT22;75222;52.004;5.908;2024-01-16T07:29:40;2.50;95.00
42037;DHT22;75222;52.004;5.908;2024-01-16T07:32:07;2.60;95.00
42037;DHT22;75222;52.004;5.908;2024-01-16T07:34:32;2.60;95.00
42037;DHT22;75222;52.004;5.908;2024-01-16T07:36:58;2.70;95.20
42037;DHT22;75222;52.004;5.908;2024-01-16T07:39:24;2.70;94.90
42037;DHT22;75222;52.004;5.908;2024-01-16T07:41:49;2.70;94.80
42037;DHT22;75222;52.004;5.908;2024-01-16T07:44:15;2.70;94.80
42037;DHT22;75222;52.004;5.908;2024-01-16T07:46:40;2.70;94.80
42037;DHT22;75222;52.004;5.908;2024-01-16T07:49:06;2.80;94.80
42037;DHT22;75222;52.004;5.908;2024-01-16T07:51:31;2.80;94.80
42037;DHT22;75222;52.004;5.908;2024-01-16T07:54:08;2.70;94.80
42037;DHT22;75222;52.004;5.908;2024-01-16T07:56:34;2.80;95.10
42037;DHT22;75222;52.004;5.908;2024-01-16T07:59:00;2.70;94.70
42037;DHT22;75222;52.004;5.908;2024-01-16T08:01:27;2.70;94.70
42037;DHT22;75222;52.004;5.908;2024-01-16T08:03:54;2.70;94.80
42037;DHT22;75222;52.004;5.908;2024-01-16T08:06:20;2.70;94.80
42037;DHT22;75222;52.004;5.908;2024-01-16T08:08:45;2.70;94.80
42037;DHT22;75222;52.004;5.908;2024-01-16T08:11:11;2.80;94.80
42037;DHT22;75222;52.004;5.908;2024-01-16T08:13:37;2.70;94.80
42037;DHT22;75222;52.004;5.908;2024-01-16T08:16:04;2.80;94.80
42037;DHT22;75222;52.004;5.908;2024-01-16T08:18:29;2.70;94.70
42037;DHT22;75222;52.004;5.908;2024-01-16T08:20:57;2.70;94.70
42037;DHT22;75222;52.004;5.908;2024-01-16T08:23:22;2.70;94.70
42037;DHT22;75222;52.004;5.908;2024-01-16T08:25:48;2.60;94.60
42037;DHT22;75222;52.004;5.908;2024-01-16T08:28:14;2.60;94.70
42037;DHT22;75222;52.004;5.908;2024-01-16T08:30:40;2.60;94.60
42037;DHT22;75222;52.004;5.908;2024-01-16T08:33:06;2.60;94.70
42037;DHT22;75222;52.004;5.908;2024-01-16T08:35:32;2.60;94.60
42037;DHT22;75222;52.004;5.908;2024-01-16T08:37:58;2.60;94.60
42037;DHT22;75222;52.004;5.908;2024-01-16T08:40:24;2.60;94.60
42037;DHT22;75222;52.004;5.908;2024-01-16T08:42:50;2.60;94.60
42037;DHT22;75222;52.004;5.908;2024-01-16T08:45:20;2.60;94.60
42037;DHT22;75222;52.004;5.908;2024-01-16T08:47:46;2.60;94.60
42037;DHT22;75222;52.004;5.908;2024-01-16T08:50:12;2.70;94.70
42037;DHT22;75222;52.004;5.908;2024-01-16T08:52:38;2.70;94.70
42037;DHT22;75222;52.004;5.908;2024-01-16T08:55:04;2.60;94.60
42037;DHT22;75222;52.004;5.908;2024-01-16T08:57:30;2.60;94.50
42037;DHT22;75222;52.004;5.908;2024-01-16T08:59:56;2.60;94.50
42037;DHT22;75222;52.004;5.908;2024-01-16T09:02:21;2.60;94.50
42037;DHT22;75222;52.004;5.908;2024-01-16T09:04:47;2.60;94.50
42037;DHT22;75222;52.004;5.908;2024-01-16T09:07:16;2.60;94.50
42037;DHT22;75222;52.004;5.908;2024-01-16T09:09:42;2.50;94.40
42037;DHT22;75222;52.004;5.908;2024-01-16T09:12:08;2.50;94.50
42037;DHT22;75222;52.004;5.908;2024-01-16T09:14:34;2.50;94.40
42037;DHT22;75222;52.004;5.908;2024-01-16T09:17:00;2.50;94.40
42037;DHT22;75222;52.004;5.908;2024-01-16T09:19:25;2.50;94.40
42037;DHT22;75222;52.004;5.908;2024-01-16T09:21:51;2.50;94.40
42037;DHT22;75222;52.004;5.908;2024-01-16T09:24:16;2.60;94.50
42037;DHT22;75222;52.004;5.908;2024-01-16T09:26:42;2.60;94.40
42037;DHT22;75222;52.004;5.908;2024-01-16T09:29:09;2.60;94.30
42037;DHT22;75222;52.004;5.908;2024-01-16T09:31:35;2.60;94.30
42037;DHT22;75222;52.004;5.908;2024-01-16T09:34:01;2.60;94.20
42037;DHT22;75222;52.004;5.908;2024-01-16T09:36:27;2.60;94.20
42037;DHT22;75222;52.004;5.908;2024-01-16T09:38:53;2.70;94.20
42037;DHT22;75222;52.004;5.908;2024-01-16T09:41:18;2.70;94.20
42037;DHT22;75222;52.004;5.908;2024-01-16T09:43:44;2.70;94.10
42037;DHT22;75222;52.004;5.908;2024-01-16T09:46:11;2.70;94.00
42037;DHT22;75222;52.004;5.908;2024-01-16T09:48:37;2.80;94.00
42037;DHT22;75222;52.004;5.908;2024-01-16T09:51:03;2.80;93.90
42037;DHT22;75222;52.004;5.908;2024-01-16T09:53:29;2.80;93.80
42037;DHT22;75222;52.004;5.908;2024-01-16T09:55:57;2.90;93.80
42037;DHT22;75222;52.004;5.908;2024-01-16T09:58:28;2.90;93.80
42037;DHT22;75222;52.004;5.908;2024-01-16T10:00:59;2.90;93.70
42037;DHT22;75222;52.004;5.908;2024-01-16T10:03:25;2.80;93.60
42037;DHT22;75222;52.004;5.908;2024-01-16T10:05:52;2.80;93.60
42037;DHT22;75222;52.004;5.908;2024-01-16T10:08:19;2.80;93.50
42037;DHT22;75222;52.004;5.908;2024-01-16T10:10:47;2.80;93.60
42037;DHT22;75222;52.004;5.908;2024-01-16T10:13:14;2.80;93.60
42037;DHT22;75222;52.004;5.908;2024-01-16T10:15:40;2.70;93.60
42037;DHT22;75222;52.004;5.908;2024-01-16T10:18:21;2.80;93.70
42037;DHT22;75222;52.004;5.908;2024-01-16T10:20:47;2.80;93.60
42037;DHT22;75222;52.004;5.908;2024-01-16T10:23:25;2.80;93.50
42037;DHT22;75222;52.004;5.908;2024-01-16T10:26:10;2.80;93.50
42037;DHT22;75222;52.004;5.908;2024-01-16T10:28:41;2.80;93.50
42037;DHT22;75222;52.004;5.908;2024-01-16T10:31:09;2.90;93.40
42037;DHT22;75222;52.004;5.908;2024-01-16T10:33:35;2.90;93.20
42037;DHT22;75222;52.004;5.908;2024-01-16T10:36:23;3.00;93.20
42037;DHT22;75222;52.004;5.908;2024-01-16T10:38:51;3.00;93.30
42037;DHT22;75222;52.004;5.908;2024-01-16T10:41:23;3.00;93.00
42037;DHT22;75222;52.004;5.908;2024-01-16T10:44:12;3.10;92.90
42037;DHT22;75222;52.004;5.908;2024-01-16T10:46:37;3.10;92.90
42037;DHT22;75222;52.004;5.908;2024-01-16T10:49:04;3.20;92.80
42037;DHT22;75222;52.004;5.908;2024-01-16T10:51:31;3.20;92.70
42037;DHT22;75222;52.004;5.908;2024-01-16T10:54:04;3.10;92.60
42037;DHT22;75222;52.004;5.908;2024-01-16T10:56:34;3.10;92.60
42037;DHT22;75222;52.004;5.908;2024-01-16T10:59:24;3.10;92.60
42037;DHT22;75222;52.004;5.908;2024-01-16T11:01:53;3.10;92.60
42037;DHT22;75222;52.004;5.908;2024-01-16T11:04:20;3.20;92.60
42037;DHT22;75222;52.004;5.908;2024-01-16T11:06:47;3.10;92.60
42037;DHT22;75222;52.004;5.908;2024-01-16T11:09:14;3.20;92.60
42037;DHT22;75222;52.004;5.908;2024-01-16T11:11:46;3.30;92.50
42037;DHT22;75222;52.004;5.908;2024-01-16T11:14:16;3.40;92.50
42037;DHT22;75222;52.004;5.908;2024-01-16T11:16:42;3.50;92.30
42037;DHT22;75222;52.004;5.908;2024-01-16T11:19:09;3.50;92.10
42037;DHT22;75222;52.004;5.908;2024-01-16T11:21:39;3.60;92.00
42037;DHT22;75222;52.004;5.908;2024-01-16T11:24:05;3.60;91.80
42037;DHT22;75222;52.004;5.908;2024-01-16T11:26:32;3.60;91.70
42037;DHT22;75222;52.004;5.908;2024-01-16T11:31:54;3.80;91.60
42037;DHT22;75222;52.004;5.908;2024-01-16T11:37:08;3.80;91.30
42037;DHT22;75222;52.004;5.908;2024-01-16T11:39:34;3.80;91.10
42037;DHT22;75222;52.004;5.908;2024-01-16T11:42:01;3.80;91.10
42037;DHT22;75222;52.004;5.908;2024-01-16T11:44:46;3.80;91.10
42037;DHT22;75222;52.004;5.908;2024-01-16T11:47:22;3.80;91.10
42037;DHT22;75222;52.004;5.908;2024-01-16T11:49:52;3.90;91.10
42037;DHT22;75222;52.004;5.908;2024-01-16T11:52:43;3.90;90.90
42037;DHT22;75222;52.004;5.908;2024-01-16T11:55:29;3.90;90.80
42037;DHT22;75222;52.004;5.908;2024-01-16T12:00:50;3.90;90.70
42037;DHT22;75222;52.004;5.908;2024-01-16T12:03:21;3.90;90.60
42037;DHT22;75222;52.004;5.908;2024-01-16T12:05:57;3.90;90.50
42037;DHT22;75222;52.004;5.908;2024-01-16T12:08:22;4.10;90.70
42037;DHT22;75222;52.004;5.908;2024-01-16T12:10:48;4.10;90.70
42037;DHT22;75222;52.004;5.908;2024-01-16T12:13:14;4.20;90.50
42037;DHT22;75222;52.004;5.908;2024-01-16T12:15:41;4.10;90.20
42037;DHT22;75222;52.004;5.908;2024-01-16T12:18:07;4.10;90.30
42037;DHT22;75222;52.004;5.908;2024-01-16T12:20:35;4.10;90.50
42037;DHT22;75222;52.004;5.908;2024-01-16T12:25:29;4.90;90.20
42037;DHT22;75222;52.004;5.908;2024-01-16T12:27:56;5.30;88.00
42037;DHT22;75222;52.004;5.908;2024-01-16T12:30:35;5.20;87.40
42037;DHT22;75222;52.004;5.908;2024-01-16T12:33:11;5.00;87.00
42037;DHT22;75222;52.004;5.908;2024-01-16T12:35:42;5.00;87.90
42037;DHT22;75222;52.004;5.908;2024-01-16T12:38:10;5.10;89.20
42037;DHT22;75222;52.004;5.908;2024-01-16T12:40:48;6.40;89.00
42037;DHT22;75222;52.004;5.908;2024-01-16T12:43:17;7.10;85.10
42037;DHT22;75222;52.004;5.908;2024-01-16T12:45:44;7.40;84.20
42037;DHT22;75222;52.004;5.908;2024-01-16T12:48:10;7.40;82.90
42037;DHT22;75222;52.004;5.908;2024-01-16T12:50:36;7.50;82.70
42037;DHT22;75222;52.004;5.908;2024-01-16T12:55:29;6.90;83.40
42037;DHT22;75222;52.004;5.908;2024-01-16T13:00:46;7.00;83.50
42037;DHT22;75222;52.004;5.908;2024-01-16T13:03:16;7.70;82.70
42037;DHT22;75222;52.004;5.908;2024-01-16T13:05:43;8.20;81.60
42037;DHT22;75222;52.004;5.908;2024-01-16T13:08:09;8.80;80.20
42037;DHT22;75222;52.004;5.908;2024-01-16T13:10:35;9.00;79.10
42037;DHT22;75222;52.004;5.908;2024-01-16T13:13:14;9.30;78.60
42037;DHT22;75222;52.004;5.908;2024-01-16T13:15:40;9.50;78.30
42037;DHT22;75222;52.004;5.908;2024-01-16T13:18:06;9.90;78.00
42037;DHT22;75222;52.004;5.908;2024-01-16T13:20:32;10.20;77.80
42037;DHT22;75222;52.004;5.908;2024-01-16T13:22:57;10.30;77.50
42037;DHT22;75222;52.004;5.908;2024-01-16T13:25:23;10.30;77.40
42037;DHT22;75222;52.004;5.908;2024-01-16T13:27:49;10.30;77.00
42037;DHT22;75222;52.004;5.908;2024-01-16T13:30:15;9.90;77.10
42037;DHT22;75222;52.004;5.908;2024-01-16T13:32:42;9.70;77.80
42037;DHT22;75222;52.004;5.908;2024-01-16T13:35:08;9.30;77.60
42037;DHT22;75222;52.004;5.908;2024-01-16T13:37:34;9.10;77.90
42037;DHT22;75222;52.004;5.908;2024-01-16T13:40:04;9.00;78.00
42037;DHT22;75222;52.004;5.908;2024-01-16T13:42:34;8.80;78.00
42037;DHT22;75222;52.004;5.908;2024-01-16T13:45:00;8.60;77.10
42037;DHT22;75222;52.004;5.908;2024-01-16T13:47:26;8.50;78.20
42037;DHT22;75222;52.004;5.908;2024-01-16T13:49:52;8.50;78.20
42037;DHT22;75222;52.004;5.908;2024-01-16T13:52:17;8.00;77.60
42037;DHT22;75222;52.004;5.908;2024-01-16T13:54:43;7.50;79.60
42037;DHT22;75222;52.004;5.908;2024-01-16T13:57:09;7.30;80.20
42037;DHT22;75222;52.004;5.908;2024-01-16T13:59:35;7.20;80.20
42037;DHT22;75222;52.004;5.908;2024-01-16T14:02:02;6.80;79.70
42037;DHT22;75222;52.004;5.908;2024-01-16T14:04:29;6.40;80.40
42037;DHT22;75222;52.004;5.908;2024-01-16T14:06:55;6.00;81.40
42037;DHT22;75222;52.004;5.908;2024-01-16T14:09:20;5.70;81.70
42037;DHT22;75222;52.004;5.908;2024-01-16T14:11:46;5.50;82.10
42037;DHT22;75222;52.004;5.908;2024-01-16T14:14:12;5.30;82.30
42037;DHT22;75222;52.004;5.908;2024-01-16T14:16:38;5.10;82.60
42037;DHT22;75222;52.004;5.908;2024-01-16T14:19:04;4.90;82.60
42037;DHT22;75222;52.004;5.908;2024-01-16T14:21:29;4.80;82.80
42037;DHT22;75222;52.004;5.908;2024-01-16T14:23:55;4.70;83.20
42037;DHT22;75222;52.004;5.908;2024-01-16T14:26:21;4.60;83.30
42037;DHT22;75222;52.004;5.908;2024-01-16T14:28:46;4.50;83.40
42037;DHT22;75222;52.004;5.908;2024-01-16T14:31:12;4.40;83.60
42037;DHT22;75222;52.004;5.908;2024-01-16T14:33:38;4.40;83.80
42037;DHT22;75222;52.004;5.908;2024-01-16T14:36:03;4.30;84.10
42037;DHT22;75222;52.004;5.908;2024-01-16T14:38:30;4.30;84.20
42037;DHT22;75222;52.004;5.908;2024-01-16T14:40:56;4.10;84.20
42037;DHT22;75222;52.004;5.908;2024-01-16T14:43:22;4.10;84.40
42037;DHT22;75222;52.004;5.908;2024-01-16T14:45:48;4.10;84.30
42037;DHT22;75222;52.004;5.908;2024-01-16T14:48:15;4.00;84.30
42037;DHT22;75222;52.004;5.908;2024-01-16T14:50:41;3.90;84.50
42037;DHT22;75222;52.004;5.908;2024-01-16T14:53:07;3.80;84.50
42037;DHT22;75222;52.004;5.908;2024-01-16T14:55:32;3.80;84.60
42037;DHT22;75222;52.004;5.908;2024-01-16T14:57:58;3.80;84.70
42037;DHT22;75222;52.004;5.908;2024-01-16T15:00:26;3.70;84.50
42037;DHT22;75222;52.004;5.908;2024-01-16T15:02:56;3.70;84.60
42037;DHT22;75222;52.004;5.908;2024-01-16T15:05:25;3.70;84.80
42037;DHT22;75222;52.004;5.908;2024-01-16T15:07:51;3.60;84.70
42037;DHT22;75222;52.004;5.908;2024-01-16T15:10:20;3.70;84.80
42037;DHT22;75222;52.004;5.908;2024-01-16T15:12:46;3.70;84.80
42037;DHT22;75222;52.004;5.908;2024-01-16T15:15:14;3.70;84.60
42037;DHT22;75222;52.004;5.908;2024-01-16T15:17:41;3.60;84.60
42037;DHT22;75222;52.004;5.908;2024-01-16T15:20:07;3.60;84.60
42037;DHT22;75222;52.004;5.908;2024-01-16T15:22:40;3.60;84.70
42037;DHT22;75222;52.004;5.908;2024-01-16T15:25:06;3.50;84.80
42037;DHT22;75222;52.004;5.908;2024-01-16T15:27:32;3.50;84.70
42037;DHT22;75222;52.004;5.908;2024-01-16T15:29:58;3.50;84.90
42037;DHT22;75222;52.004;5.908;2024-01-16T15:32:25;3.50;84.90
42037;DHT22;75222;52.004;5.908;2024-01-16T15:34:50;3.50;85.00
42037;DHT22;75222;52.004;5.908;2024-01-16T15:37:16;3.40;85.00
42037;DHT22;75222;52.004;5.908;2024-01-16T15:39:42;3.40;85.00
42037;DHT22;75222;52.004;5.908;2024-01-16T15:42:07;3.40;84.70
42037;DHT22;75222;52.004;5.908;2024-01-16T15:44:33;3.40;84.80
42037;DHT22;75222;52.004;5.908;2024-01-16T15:47:00;3.30;84.10
42037;DHT22;75222;52.004;5.908;2024-01-16T15:49:26;3.20;84.00
42037;DHT22;75222;52.004;5.908;2024-01-16T15:51:53;3.20;84.00
42037;DHT22;75222;52.004;5.908;2024-01-16T15:54:19;3.20;84.10
42037;DHT22;75222;52.004;5.908;2024-01-16T15:56:45;3.10;84.00
42037;DHT22;75222;52.004;5.908;2024-01-16T15:59:11;3.10;83.90